sensor_id;sensor_type;location;lat;lon;timestamp;P1;durP1;ratioP1;P2;durP2;ratioP2
72125;SDS011;59999;51.676;22.650;2023-02-01T00:01:50;11.13;;;4.03;;
72125;SDS011;59999;51.676;22.650;2023-02-01T00:04:16;13.57;;;5.68;;
72125;SDS011;59999;51.676;22.650;2023-02-01T00:06:42;10.73;;;4.25;;
72125;SDS011;59999;51.676;22.650;2023-02-01T00:09:07;10.00;;;3.27;;
72125;SDS011;59999;51.676;22.650;2023-02-01T00:11:33;13.25;;;5.50;;
72125;SDS011;59999;51.676;22.650;2023-02-01T00:13:59;16.57;;;6.20;;
72125;SDS011;59999;51.676;22.650;2023-02-01T00:16:26;16.85;;;6.32;;
72125;SDS011;59999;51.676;22.650;2023-02-01T00:19:04;15.55;;;5.47;;
72125;SDS011;59999;51.676;22.650;2023-02-01T00:21:32;15.33;;;4.73;;
72125;SDS011;59999;51.676;22.650;2023-02-01T00:23:57;17.35;;;6.07;;
72125;SDS011;59999;51.676;22.650;2023-02-01T00:26:30;12.75;;;4.47;;
72125;SDS011;59999;51.676;22.650;2023-02-01T00:29:06;14.13;;;4.88;;
72125;SDS011;59999;51.676;22.650;2023-02-01T00:31:40;15.00;;;6.10;;
72125;SDS011;59999;51.676;22.650;2023-02-01T00:34:07;16.77;;;5.05;;
72125;SDS011;59999;51.676;22.650;2023-02-01T00:36:34;15.55;;;6.18;;
72125;SDS011;59999;51.676;22.650;2023-02-01T00:38:59;13.27;;;4.72;;
72125;SDS011;59999;51.676;22.650;2023-02-01T00:41:25;14.30;;;4.70;;
72125;SDS011;59999;51.676;22.650;2023-02-01T00:43:51;10.30;;;3.38;;
72125;SDS011;59999;51.676;22.650;2023-02-01T00:46:18;16.75;;;6.50;;
72125;SDS011;59999;51.676;22.650;2023-02-01T00:48:45;12.93;;;5.30;;
72125;SDS011;59999;51.676;22.650;2023-02-01T00:51:12;14.53;;;4.97;;
72125;SDS011;59999;51.676;22.650;2023-02-01T00:53:40;10.77;;;4.03;;
72125;SDS011;59999;51.676;22.650;2023-02-01T00:56:06;17.70;;;6.07;;
72125;SDS011;59999;51.676;22.650;2023-02-01T00:58:33;13.32;;;5.30;;
72125;SDS011;59999;51.676;22.650;2023-02-01T01:01:09;12.02;;;3.88;;
72125;SDS011;59999;51.676;22.650;2023-02-01T01:03:37;14.57;;;5.20;;
72125;SDS011;59999;51.676;22.650;2023-02-01T01:06:06;16.92;;;6.25;;
72125;SDS011;59999;51.676;22.650;2023-02-01T01:08:34;16.10;;;6.28;;
72125;SDS011;59999;51.676;22.650;2023-02-01T01:11:07;15.77;;;5.60;;
72125;SDS011;59999;51.676;22.650;2023-02-01T01:13:41;11.18;;;4.28;;
72125;SDS011;59999;51.676;22.650;2023-02-01T01:16:08;14.57;;;4.73;;
72125;SDS011;59999;51.676;22.650;2023-02-01T01:18:36;20.88;;;7.38;;
72125;SDS011;59999;51.676;22.650;2023-02-01T01:21:03;17.38;;;6.63;;
72125;SDS011;59999;51.676;22.650;2023-02-01T01:23:31;17.40;;;5.63;;
72125;SDS011;59999;51.676;22.650;2023-02-01T01:25:57;15.70;;;5.95;;
72125;SDS011;59999;51.676;22.650;2023-02-01T01:28:23;12.63;;;4.37;;
72125;SDS011;59999;51.676;22.650;2023-02-01T01:30:49;13.05;;;4.93;;
72125;SDS011;59999;51.676;22.650;2023-02-01T01:33:14;15.70;;;5.40;;
72125;SDS011;59999;51.676;22.650;2023-02-01T01:35:40;12.82;;;5.18;;
72125;SDS011;59999;51.676;22.650;2023-02-01T01:38:06;12.60;;;4.38;;
72125;SDS011;59999;51.676;22.650;2023-02-01T01:40:34;17.58;;;6.25;;
72125;SDS011;59999;51.676;22.650;2023-02-01T01:43:00;16.70;;;5.82;;
72125;SDS011;59999;51.676;22.650;2023-02-01T01:45:27;11.67;;;4.60;;
72125;SDS011;59999;51.676;22.650;2023-02-01T01:47:56;13.90;;;5.78;;
72125;SDS011;59999;51.676;22.650;2023-02-01T01:53:28;14.93;;;5.53;;
72125;SDS011;59999;51.676;22.650;2023-02-01T01:55:59;13.18;;;4.75;;
72125;SDS011;59999;51.676;22.650;2023-02-01T01:58:26;12.93;;;4.87;;
72125;SDS011;59999;51.676;22.650;2023-02-01T02:00:54;16.70;;;6.90;;
72125;SDS011;59999;51.676;22.650;2023-02-01T02:03:21;20.33;;;7.38;;
72125;SDS011;59999;51.676;22.650;2023-02-01T02:05:53;17.52;;;7.13;;
72125;SDS011;59999;51.676;22.650;2023-02-01T02:08:22;14.95;;;5.60;;
72125;SDS011;59999;51.676;22.650;2023-02-01T02:10:50;13.50;;;5.20;;
72125;SDS011;59999;51.676;22.650;2023-02-01T02:13:26;15.20;;;5.45;;
72125;SDS011;59999;51.676;22.650;2023-02-01T02:39:44;12.70;;;4.37;;
72125;SDS011;59999;51.676;22.650;2023-02-01T02:45:52;8.35;;;2.60;;
72125;SDS011;59999;51.676;22.650;2023-02-01T02:51:52;11.05;;;4.47;;
72125;SDS011;59999;51.676;22.650;2023-02-01T02:54:41;12.53;;;3.77;;
72125;SDS011;59999;51.676;22.650;2023-02-01T02:57:34;10.73;;;3.78;;
72125;SDS011;59999;51.676;22.650;2023-02-01T03:00:22;11.75;;;4.60;;
72125;SDS011;59999;51.676;22.650;2023-02-01T03:03:11;13.48;;;4.57;;
72125;SDS011;59999;51.676;22.650;2023-02-01T03:05:55;12.40;;;4.20;;
72125;SDS011;59999;51.676;22.650;2023-02-01T03:08:25;12.50;;;3.73;;
72125;SDS011;59999;51.676;22.650;2023-02-01T03:11:08;9.57;;;3.25;;
72125;SDS011;59999;51.676;22.650;2023-02-01T03:18:36;10.50;;;3.60;;
72125;SDS011;59999;51.676;22.650;2023-02-01T03:21:25;11.80;;;3.15;;
72125;SDS011;59999;51.676;22.650;2023-02-01T03:23:57;8.07;;;2.00;;
72125;SDS011;59999;51.676;22.650;2023-02-01T03:26:28;9.05;;;2.53;;
72125;SDS011;59999;51.676;22.650;2023-02-01T03:28:57;9.82;;;2.40;;
72125;SDS011;59999;51.676;22.650;2023-02-01T03:31:30;11.13;;;2.57;;
72125;SDS011;59999;51.676;22.650;2023-02-01T03:33:57;8.38;;;2.30;;
72125;SDS011;59999;51.676;22.650;2023-02-01T03:36:25;7.82;;;2.38;;
72125;SDS011;59999;51.676;22.650;2023-02-01T03:46:42;8.23;;;2.17;;
72125;SDS011;59999;51.676;22.650;2023-02-01T03:49:15;9.38;;;1.88;;
72125;SDS011;59999;51.676;22.650;2023-02-01T03:51:53;7.97;;;1.80;;
72125;SDS011;59999;51.676;22.650;2023-02-01T03:54:23;5.82;;;1.60;;
72125;SDS011;59999;51.676;22.650;2023-02-01T03:56:50;7.73;;;1.93;;
72125;SDS011;59999;51.676;22.650;2023-02-01T03:59:17;5.57;;;1.30;;
72125;SDS011;59999;51.676;22.650;2023-02-01T04:01:43;8.88;;;1.50;;
72125;SDS011;59999;51.676;22.650;2023-02-01T04:04:09;5.72;;;1.30;;
72125;SDS011;59999;51.676;22.650;2023-02-01T04:06:45;9.00;;;1.75;;
72125;SDS011;59999;51.676;22.650;2023-02-01T04:09:15;6.20;;;1.00;;
72125;SDS011;59999;51.676;22.650;2023-02-01T04:11:42;7.57;;;1.35;;
72125;SDS011;59999;51.676;22.650;2023-02-01T04:14:08;11.38;;;1.40;;
72125;SDS011;59999;51.676;22.650;2023-02-01T04:16:33;5.90;;;0.90;;
72125;SDS011;59999;51.676;22.650;2023-02-01T04:19:00;7.37;;;0.97;;
72125;SDS011;59999;51.676;22.650;2023-02-01T04:21:26;7.65;;;1.35;;
72125;SDS011;59999;51.676;22.650;2023-02-01T04:23:52;8.02;;;1.35;;
72125;SDS011;59999;51.676;22.650;2023-02-01T04:26:19;6.55;;;1.35;;
72125;SDS011;59999;51.676;22.650;2023-02-01T04:28:46;8.27;;;1.30;;
72125;SDS011;59999;51.676;22.650;2023-02-01T04:31:15;6.20;;;1.10;;
72125;SDS011;59999;51.676;22.650;2023-02-01T04:33:41;9.32;;;1.38;;
72125;SDS011;59999;51.676;22.650;2023-02-01T04:36:07;6.47;;;1.25;;
72125;SDS011;59999;51.676;22.650;2023-02-01T04:38:33;6.83;;;0.83;;
72125;SDS011;59999;51.676;22.650;2023-02-01T04:40:58;8.88;;;1.20;;
72125;SDS011;59999;51.676;22.650;2023-02-01T04:43:25;6.13;;;1.08;;
72125;SDS011;59999;51.676;22.650;2023-02-01T04:45:51;5.37;;;0.90;;
72125;SDS011;59999;51.676;22.650;2023-02-01T04:48:18;7.72;;;1.13;;
72125;SDS011;59999;51.676;22.650;2023-02-01T04:50:45;7.72;;;1.17;;
72125;SDS011;59999;51.676;22.650;2023-02-01T04:53:13;10.40;;;1.58;;
72125;SDS011;59999;51.676;22.650;2023-02-01T04:55:40;11.27;;;1.50;;
72125;SDS011;59999;51.676;22.650;2023-02-01T04:58:06;10.77;;;1.60;;
72125;SDS011;59999;51.676;22.650;2023-02-01T05:00:32;8.10;;;1.63;;
72125;SDS011;59999;51.676;22.650;2023-02-01T05:02:58;9.00;;;1.40;;
72125;SDS011;59999;51.676;22.650;2023-02-01T05:05:24;7.07;;;1.13;;
72125;SDS011;59999;51.676;22.650;2023-02-01T05:07:50;7.03;;;1.30;;
72125;SDS011;59999;51.676;22.650;2023-02-01T05:10:16;10.38;;;1.70;;
72125;SDS011;59999;51.676;22.650;2023-02-01T05:12:43;10.77;;;1.70;;
72125;SDS011;59999;51.676;22.650;2023-02-01T05:15:28;11.98;;;1.33;;
72125;SDS011;59999;51.676;22.650;2023-02-01T05:17:54;6.68;;;1.50;;
72125;SDS011;59999;51.676;22.650;2023-02-01T05:20:20;6.23;;;1.40;;
72125;SDS011;59999;51.676;22.650;2023-02-01T05:22:45;6.88;;;1.50;;
72125;SDS011;59999;51.676;22.650;2023-02-01T05:25:11;6.17;;;1.30;;
72125;SDS011;59999;51.676;22.650;2023-02-01T05:27:37;6.05;;;1.33;;
72125;SDS011;59999;51.676;22.650;2023-02-01T05:30:03;11.10;;;1.40;;
72125;SDS011;59999;51.676;22.650;2023-02-01T05:32:31;9.00;;;1.40;;
72125;SDS011;59999;51.676;22.650;2023-02-01T05:34:56;7.40;;;1.50;;
72125;SDS011;59999;51.676;22.650;2023-02-01T05:37:22;9.82;;;1.45;;
72125;SDS011;59999;51.676;22.650;2023-02-01T05:39:48;5.23;;;1.07;;
72125;SDS011;59999;51.676;22.650;2023-02-01T05:42:14;10.20;;;0.98;;
72125;SDS011;59999;51.676;22.650;2023-02-01T05:44:40;11.75;;;2.25;;
72125;SDS011;59999;51.676;22.650;2023-02-01T05:47:06;7.50;;;0.90;;
72125;SDS011;59999;51.676;22.650;2023-02-01T05:49:32;8.73;;;1.50;;
72125;SDS011;59999;51.676;22.650;2023-02-01T05:51:58;9.75;;;1.90;;
72125;SDS011;59999;51.676;22.650;2023-02-01T05:54:24;6.35;;;1.05;;
72125;SDS011;59999;51.676;22.650;2023-02-01T05:56:50;10.30;;;1.25;;
72125;SDS011;59999;51.676;22.650;2023-02-01T05:59:15;9.05;;;1.17;;
72125;SDS011;59999;51.676;22.650;2023-02-01T06:01:41;11.60;;;1.80;;
72125;SDS011;59999;51.676;22.650;2023-02-01T06:04:07;12.15;;;2.17;;
72125;SDS011;59999;51.676;22.650;2023-02-01T06:06:33;7.63;;;2.08;;
72125;SDS011;59999;51.676;22.650;2023-02-01T06:08:59;11.03;;;1.70;;
72125;SDS011;59999;51.676;22.650;2023-02-01T06:11:26;10.35;;;1.95;;
72125;SDS011;59999;51.676;22.650;2023-02-01T06:13:53;6.90;;;1.60;;
72125;SDS011;59999;51.676;22.650;2023-02-01T06:16:19;9.10;;;1.55;;
72125;SDS011;59999;51.676;22.650;2023-02-01T06:18:45;8.27;;;1.03;;
72125;SDS011;59999;51.676;22.650;2023-02-01T06:21:11;13.93;;;2.08;;
72125;SDS011;59999;51.676;22.650;2023-02-01T06:23:38;9.48;;;1.20;;
72125;SDS011;59999;51.676;22.650;2023-02-01T06:26:05;7.80;;;1.40;;
72125;SDS011;59999;51.676;22.650;2023-02-01T06:28:33;8.82;;;1.15;;
72125;SDS011;59999;51.676;22.650;2023-02-01T06:31:05;10.10;;;1.38;;
72125;SDS011;59999;51.676;22.650;2023-02-01T06:33:34;14.02;;;1.58;;
72125;SDS011;59999;51.676;22.650;2023-02-01T06:36:01;9.53;;;1.90;;
72125;SDS011;59999;51.676;22.650;2023-02-01T06:38:30;11.70;;;2.55;;
72125;SDS011;59999;51.676;22.650;2023-02-01T06:40:57;13.02;;;2.47;;
72125;SDS011;59999;51.676;22.650;2023-02-01T06:43:24;9.57;;;1.55;;
72125;SDS011;59999;51.676;22.650;2023-02-01T06:45:51;7.97;;;1.65;;
72125;SDS011;59999;51.676;22.650;2023-02-01T06:48:17;9.93;;;1.70;;
72125;SDS011;59999;51.676;22.650;2023-02-01T06:50:43;11.70;;;1.58;;
72125;SDS011;59999;51.676;22.650;2023-02-01T06:53:09;7.75;;;1.90;;
72125;SDS011;59999;51.676;22.650;2023-02-01T06:55:36;20.00;;;4.47;;
72125;SDS011;59999;51.676;22.650;2023-02-01T06:58:02;16.53;;;3.87;;
72125;SDS011;59999;51.676;22.650;2023-02-01T07:00:28;15.90;;;4.28;;
72125;SDS011;59999;51.676;22.650;2023-02-01T07:02:54;14.13;;;4.40;;
72125;SDS011;59999;51.676;22.650;2023-02-01T07:05:21;28.55;;;12.32;;
72125;SDS011;59999;51.676;22.650;2023-02-01T07:07:46;22.87;;;7.57;;
72125;SDS011;59999;51.676;22.650;2023-02-01T07:10:13;28.58;;;8.73;;
72125;SDS011;59999;51.676;22.650;2023-02-01T07:12:38;24.63;;;6.37;;
72125;SDS011;59999;51.676;22.650;2023-02-01T07:15:05;37.83;;;8.85;;
72125;SDS011;59999;51.676;22.650;2023-02-01T07:17:31;32.67;;;9.52;;
72125;SDS011;59999;51.676;22.650;2023-02-01T07:19:57;20.88;;;4.75;;
72125;SDS011;59999;51.676;22.650;2023-02-01T07:22:25;18.48;;;4.00;;
72125;SDS011;59999;51.676;22.650;2023-02-01T07:24:51;25.53;;;6.03;;
72125;SDS011;59999;51.676;22.650;2023-02-01T07:27:17;15.65;;;3.45;;
72125;SDS011;59999;51.676;22.650;2023-02-01T07:29:43;47.92;;;9.70;;
72125;SDS011;59999;51.676;22.650;2023-02-01T07:32:08;23.05;;;5.65;;
72125;SDS011;59999;51.676;22.650;2023-02-01T07:34:34;22.17;;;4.53;;
72125;SDS011;59999;51.676;22.650;2023-02-01T07:37:00;30.08;;;7.53;;
72125;SDS011;59999;51.676;22.650;2023-02-01T07:39:26;24.95;;;6.60;;
72125;SDS011;59999;51.676;22.650;2023-02-01T07:41:57;30.77;;;7.97;;
72125;SDS011;59999;51.676;22.650;2023-02-01T07:44:23;25.23;;;5.05;;
72125;SDS011;59999;51.676;22.650;2023-02-01T07:46:49;25.77;;;5.70;;
72125;SDS011;59999;51.676;22.650;2023-02-01T07:49:15;24.70;;;5.43;;
72125;SDS011;59999;51.676;22.650;2023-02-01T07:51:42;18.35;;;4.20;;
72125;SDS011;59999;51.676;22.650;2023-02-01T07:54:09;22.75;;;5.07;;
72125;SDS011;59999;51.676;22.650;2023-02-01T07:56:35;22.65;;;7.28;;
72125;SDS011;59999;51.676;22.650;2023-02-01T07:59:01;20.77;;;6.13;;
72125;SDS011;59999;51.676;22.650;2023-02-01T08:01:27;23.80;;;5.00;;
72125;SDS011;59999;51.676;22.650;2023-02-01T08:03:55;16.15;;;5.53;;
72125;SDS011;59999;51.676;22.650;2023-02-01T08:06:24;20.17;;;5.03;;
72125;SDS011;59999;51.676;22.650;2023-02-01T08:08:50;21.70;;;5.72;;
72125;SDS011;59999;51.676;22.650;2023-02-01T08:11:17;31.58;;;8.52;;
72125;SDS011;59999;51.676;22.650;2023-02-01T08:13:44;17.17;;;5.22;;
72125;SDS011;59999;51.676;22.650;2023-02-01T08:16:11;13.73;;;4.38;;
72125;SDS011;59999;51.676;22.650;2023-02-01T08:18:39;25.70;;;6.27;;
72125;SDS011;59999;51.676;22.650;2023-02-01T08:23:32;19.17;;;4.45;;
72125;SDS011;59999;51.676;22.650;2023-02-01T08:26:11;19.90;;;6.47;;
72125;SDS011;59999;51.676;22.650;2023-02-01T08:28:45;14.77;;;3.20;;
72125;SDS011;59999;51.676;22.650;2023-02-01T08:31:13;17.35;;;3.90;;
72125;SDS011;59999;51.676;22.650;2023-02-01T08:33:41;14.80;;;4.05;;
72125;SDS011;59999;51.676;22.650;2023-02-01T08:36:09;17.92;;;4.90;;
72125;SDS011;59999;51.676;22.650;2023-02-01T08:38:36;20.13;;;5.25;;
72125;SDS011;59999;51.676;22.650;2023-02-01T08:41:14;15.17;;;2.87;;
72125;SDS011;59999;51.676;22.650;2023-02-01T08:43:42;16.30;;;3.75;;
72125;SDS011;59999;51.676;22.650;2023-02-01T08:46:09;22.08;;;4.70;;
72125;SDS011;59999;51.676;22.650;2023-02-01T08:48:35;25.77;;;5.43;;
72125;SDS011;59999;51.676;22.650;2023-02-01T08:51:02;16.95;;;4.40;;
72125;SDS011;59999;51.676;22.650;2023-02-01T08:53:30;24.73;;;5.00;;
72125;SDS011;59999;51.676;22.650;2023-02-01T08:55:56;19.70;;;4.80;;
72125;SDS011;59999;51.676;22.650;2023-02-01T08:58:22;23.48;;;6.68;;
72125;SDS011;59999;51.676;22.650;2023-02-01T09:00:48;33.00;;;6.63;;
72125;SDS011;59999;51.676;22.650;2023-02-01T09:03:15;21.75;;;6.25;;
72125;SDS011;59999;51.676;22.650;2023-02-01T09:05:41;18.50;;;4.97;;
72125;SDS011;59999;51.676;22.650;2023-02-01T09:08:07;27.63;;;6.10;;
72125;SDS011;59999;51.676;22.650;2023-02-01T09:10:33;23.73;;;5.60;;
72125;SDS011;59999;51.676;22.650;2023-02-01T09:13:00;21.88;;;5.38;;
72125;SDS011;59999;51.676;22.650;2023-02-01T09:15:26;13.27;;;4.43;;
72125;SDS011;59999;51.676;22.650;2023-02-01T09:17:52;21.23;;;5.00;;
72125;SDS011;59999;51.676;22.650;2023-02-01T09:20:17;23.87;;;4.87;;
72125;SDS011;59999;51.676;22.650;2023-02-01T09:22:45;24.02;;;4.72;;
72125;SDS011;59999;51.676;22.650;2023-02-01T09:25:11;26.27;;;5.78;;
72125;SDS011;59999;51.676;22.650;2023-02-01T09:27:37;25.80;;;6.13;;
72125;SDS011;59999;51.676;22.650;2023-02-01T09:30:03;27.10;;;7.72;;
72125;SDS011;59999;51.676;22.650;2023-02-01T09:32:30;39.78;;;10.68;;
72125;SDS011;59999;51.676;22.650;2023-02-01T09:34:55;18.73;;;4.87;;
72125;SDS011;59999;51.676;22.650;2023-02-01T09:37:22;16.45;;;5.82;;
72125;SDS011;59999;51.676;22.650;2023-02-01T09:39:47;46.37;;;14.97;;
72125;SDS011;59999;51.676;22.650;2023-02-01T09:47:31;18.70;;;3.92;;
72125;SDS011;59999;51.676;22.650;2023-02-01T09:49:59;16.97;;;5.07;;
72125;SDS011;59999;51.676;22.650;2023-02-01T09:52:45;24.02;;;6.95;;
72125;SDS011;59999;51.676;22.650;2023-02-01T09:55:16;18.48;;;4.18;;
72125;SDS011;59999;51.676;22.650;2023-02-01T09:57:49;15.68;;;3.83;;
72125;SDS011;59999;51.676;22.650;2023-02-01T10:00:29;13.00;;;2.67;;
72125;SDS011;59999;51.676;22.650;2023-02-01T10:02:57;11.05;;;3.35;;
72125;SDS011;59999;51.676;22.650;2023-02-01T10:10:51;16.27;;;4.00;;
72125;SDS011;59999;51.676;22.650;2023-02-01T10:13:33;14.93;;;3.10;;
72125;SDS011;59999;51.676;22.650;2023-02-01T10:16:31;14.20;;;3.58;;
72125;SDS011;59999;51.676;22.650;2023-02-01T10:27:12;12.33;;;2.53;;
72125;SDS011;59999;51.676;22.650;2023-02-01T10:29:43;9.07;;;2.00;;
72125;SDS011;59999;51.676;22.650;2023-02-01T10:32:12;9.77;;;2.40;;
72125;SDS011;59999;51.676;22.650;2023-02-01T10:34:40;13.63;;;2.25;;
72125;SDS011;59999;51.676;22.650;2023-02-01T10:37:16;10.48;;;2.95;;
72125;SDS011;59999;51.676;22.650;2023-02-01T10:39:48;9.37;;;1.87;;
72125;SDS011;59999;51.676;22.650;2023-02-01T10:42:15;13.48;;;2.90;;
72125;SDS011;59999;51.676;22.650;2023-02-01T10:44:45;11.68;;;2.47;;
72125;SDS011;59999;51.676;22.650;2023-02-01T10:47:13;10.52;;;2.88;;
72125;SDS011;59999;51.676;22.650;2023-02-01T10:57:57;17.83;;;5.57;;
72125;SDS011;59999;51.676;22.650;2023-02-01T11:00:25;17.80;;;4.75;;
72125;SDS011;59999;51.676;22.650;2023-02-01T11:02:52;23.63;;;8.25;;
72125;SDS011;59999;51.676;22.650;2023-02-01T11:05:18;14.17;;;3.73;;
72125;SDS011;59999;51.676;22.650;2023-02-01T11:07:51;14.18;;;3.45;;
72125;SDS011;59999;51.676;22.650;2023-02-01T11:10:37;12.55;;;2.40;;
72125;SDS011;59999;51.676;22.650;2023-02-01T11:13:11;13.25;;;2.72;;
72125;SDS011;59999;51.676;22.650;2023-02-01T11:15:43;10.63;;;3.15;;
72125;SDS011;59999;51.676;22.650;2023-02-01T11:18:20;14.17;;;3.80;;
72125;SDS011;59999;51.676;22.650;2023-02-01T11:20:52;13.57;;;3.20;;
72125;SDS011;59999;51.676;22.650;2023-02-01T11:23:23;15.88;;;3.63;;
72125;SDS011;59999;51.676;22.650;2023-02-01T11:25:53;14.98;;;3.58;;
72125;SDS011;59999;51.676;22.650;2023-02-01T11:28:21;11.07;;;3.58;;
72125;SDS011;59999;51.676;22.650;2023-02-01T11:30:51;21.10;;;6.97;;
72125;SDS011;59999;51.676;22.650;2023-02-01T11:33:20;18.08;;;4.90;;
72125;SDS011;59999;51.676;22.650;2023-02-01T11:35:55;16.95;;;5.10;;
72125;SDS011;59999;51.676;22.650;2023-02-01T11:38:30;20.13;;;3.05;;
72125;SDS011;59999;51.676;22.650;2023-02-01T11:41:14;9.80;;;2.30;;
72125;SDS011;59999;51.676;22.650;2023-02-01T11:43:53;13.10;;;3.03;;
72125;SDS011;59999;51.676;22.650;2023-02-01T11:46:27;12.40;;;2.80;;
72125;SDS011;59999;51.676;22.650;2023-02-01T11:48:55;8.57;;;2.15;;
72125;SDS011;59999;51.676;22.650;2023-02-01T11:54:23;12.23;;;2.50;;
72125;SDS011;59999;51.676;22.650;2023-02-01T11:59:54;14.20;;;3.00;;
72125;SDS011;59999;51.676;22.650;2023-02-01T12:13:49;8.30;;;2.00;;
72125;SDS011;59999;51.676;22.650;2023-02-01T12:41:47;12.82;;;4.22;;
72125;SDS011;59999;51.676;22.650;2023-02-01T12:47:52;22.63;;;5.32;;
72125;SDS011;59999;51.676;22.650;2023-02-01T12:53:13;28.38;;;7.55;;
72125;SDS011;59999;51.676;22.650;2023-02-01T12:55:57;24.50;;;7.43;;
72125;SDS011;59999;51.676;22.650;2023-02-01T13:06:02;20.65;;;5.22;;
72125;SDS011;59999;51.676;22.650;2023-02-01T13:08:41;17.55;;;5.15;;
72125;SDS011;59999;51.676;22.650;2023-02-01T13:11:17;17.33;;;5.00;;
72125;SDS011;59999;51.676;22.650;2023-02-01T13:14:22;13.70;;;4.07;;
72125;SDS011;59999;51.676;22.650;2023-02-01T13:16:57;20.00;;;5.40;;
72125;SDS011;59999;51.676;22.650;2023-02-01T13:19:35;20.67;;;6.75;;
72125;SDS011;59999;51.676;22.650;2023-02-01T13:22:25;13.60;;;3.97;;
72125;SDS011;59999;51.676;22.650;2023-02-01T13:25:02;13.75;;;3.95;;
72125;SDS011;59999;51.676;22.650;2023-02-01T13:27:36;17.20;;;5.37;;
72125;SDS011;59999;51.676;22.650;2023-02-01T13:30:05;15.98;;;4.50;;
72125;SDS011;59999;51.676;22.650;2023-02-01T13:41:30;22.73;;;6.20;;
72125;SDS011;59999;51.676;22.650;2023-02-01T13:44:11;15.00;;;3.65;;
72125;SDS011;59999;51.676;22.650;2023-02-01T13:46:43;12.80;;;3.85;;
72125;SDS011;59999;51.676;22.650;2023-02-01T13:49:20;13.93;;;4.57;;
72125;SDS011;59999;51.676;22.650;2023-02-01T13:51:53;14.75;;;3.90;;
72125;SDS011;59999;51.676;22.650;2023-02-01T13:54:26;20.10;;;5.10;;
72125;SDS011;59999;51.676;22.650;2023-02-01T13:56:53;12.05;;;3.08;;
72125;SDS011;59999;51.676;22.650;2023-02-01T14:05:09;12.98;;;3.60;;
72125;SDS011;59999;51.676;22.650;2023-02-01T14:23:44;13.57;;;4.07;;
72125;SDS011;59999;51.676;22.650;2023-02-01T14:26:14;15.88;;;3.25;;
72125;SDS011;59999;51.676;22.650;2023-02-01T14:28:44;15.07;;;4.75;;
72125;SDS011;59999;51.676;22.650;2023-02-01T14:31:16;21.67;;;5.43;;
72125;SDS011;59999;51.676;22.650;2023-02-01T14:33:55;22.40;;;5.37;;
72125;SDS011;59999;51.676;22.650;2023-02-01T14:36:24;22.85;;;6.38;;
72125;SDS011;59999;51.676;22.650;2023-02-01T14:38:51;29.30;;;7.65;;
72125;SDS011;59999;51.676;22.650;2023-02-01T14:49:39;23.73;;;6.35;;
72125;SDS011;59999;51.676;22.650;2023-02-01T14:52:29;45.03;;;14.27;;
72125;SDS011;59999;51.676;22.650;2023-02-01T14:55:00;26.35;;;9.38;;
72125;SDS011;59999;51.676;22.650;2023-02-01T14:57:34;25.80;;;9.52;;
72125;SDS011;59999;51.676;22.650;2023-02-01T15:00:14;18.37;;;6.40;;
72125;SDS011;59999;51.676;22.650;2023-02-01T15:02:44;21.33;;;6.57;;
72125;SDS011;59999;51.676;22.650;2023-02-01T15:07:50;24.23;;;6.88;;
72125;SDS011;59999;51.676;22.650;2023-02-01T15:10:17;48.60;;;18.08;;
72125;SDS011;59999;51.676;22.650;2023-02-01T15:12:45;24.63;;;9.00;;
72125;SDS011;59999;51.676;22.650;2023-02-01T15:15:15;55.55;;;18.23;;
72125;SDS011;59999;51.676;22.650;2023-02-01T15:17:53;34.95;;;10.52;;
72125;SDS011;59999;51.676;22.650;2023-02-01T15:20:22;47.03;;;13.38;;
72125;SDS011;59999;51.676;22.650;2023-02-01T15:25:27;121.43;;;36.10;;
72125;SDS011;59999;51.676;22.650;2023-02-01T15:28:00;78.55;;;27.45;;
72125;SDS011;59999;51.676;22.650;2023-02-01T15:30:27;58.05;;;23.67;;
72125;SDS011;59999;51.676;22.650;2023-02-01T15:43:43;6.85;;;2.10;;
72125;SDS011;59999;51.676;22.650;2023-02-01T15:46:33;6.72;;;1.00;;
72125;SDS011;59999;51.676;22.650;2023-02-01T15:49:01;6.68;;;1.80;;
72125;SDS011;59999;51.676;22.650;2023-02-01T15:51:29;10.20;;;2.60;;
72125;SDS011;59999;51.676;22.650;2023-02-01T15:56:33;6.43;;;1.77;;
72125;SDS011;59999;51.676;22.650;2023-02-01T15:59:01;20.60;;;5.53;;
72125;SDS011;59999;51.676;22.650;2023-02-01T16:01:29;32.55;;;7.60;;
72125;SDS011;59999;51.676;22.650;2023-02-01T16:06:45;29.52;;;6.82;;
72125;SDS011;59999;51.676;22.650;2023-02-01T16:09:14;26.70;;;6.82;;
72125;SDS011;59999;51.676;22.650;2023-02-01T16:11:47;15.20;;;5.38;;
72125;SDS011;59999;51.676;22.650;2023-02-01T16:14:17;25.00;;;7.85;;
72125;SDS011;59999;51.676;22.650;2023-02-01T16:16:43;23.20;;;8.37;;
72125;SDS011;59999;51.676;22.650;2023-02-01T16:19:09;21.65;;;5.90;;
72125;SDS011;59999;51.676;22.650;2023-02-01T16:21:35;21.67;;;5.55;;
72125;SDS011;59999;51.676;22.650;2023-02-01T16:24:00;30.73;;;7.70;;
72125;SDS011;59999;51.676;22.650;2023-02-01T16:26:32;34.50;;;9.93;;
72125;SDS011;59999;51.676;22.650;2023-02-01T16:28:59;45.92;;;10.63;;
72125;SDS011;59999;51.676;22.650;2023-02-01T16:31:28;78.43;;;28.20;;
72125;SDS011;59999;51.676;22.650;2023-02-01T16:33:55;77.03;;;26.17;;
72125;SDS011;59999;51.676;22.650;2023-02-01T16:36:22;63.35;;;19.42;;
72125;SDS011;59999;51.676;22.650;2023-02-01T16:38:48;52.65;;;13.35;;
72125;SDS011;59999;51.676;22.650;2023-02-01T16:41:18;52.17;;;14.20;;
72125;SDS011;59999;51.676;22.650;2023-02-01T16:43:44;58.35;;;16.83;;
72125;SDS011;59999;51.676;22.650;2023-02-01T16:46:15;59.70;;;14.53;;
72125;SDS011;59999;51.676;22.650;2023-02-01T16:48:42;50.58;;;12.98;;
72125;SDS011;59999;51.676;22.650;2023-02-01T16:51:13;46.72;;;13.88;;
72125;SDS011;59999;51.676;22.650;2023-02-01T16:53:41;63.53;;;15.73;;
72125;SDS011;59999;51.676;22.650;2023-02-01T16:56:18;132.07;;;26.92;;
72125;SDS011;59999;51.676;22.650;2023-02-01T16:58:45;159.93;;;32.73;;
72125;SDS011;59999;51.676;22.650;2023-02-01T17:01:13;92.43;;;22.60;;
72125;SDS011;59999;51.676;22.650;2023-02-01T17:03:40;59.13;;;13.43;;
72125;SDS011;59999;51.676;22.650;2023-02-01T17:06:07;81.10;;;17.70;;
72125;SDS011;59999;51.676;22.650;2023-02-01T17:08:37;64.68;;;14.02;;
72125;SDS011;59999;51.676;22.650;2023-02-01T17:11:08;60.63;;;16.10;;
72125;SDS011;59999;51.676;22.650;2023-02-01T17:13:36;65.70;;;15.00;;
72125;SDS011;59999;51.676;22.650;2023-02-01T17:16:03;75.80;;;16.55;;
72125;SDS011;59999;51.676;22.650;2023-02-01T17:18:34;88.70;;;20.58;;
72125;SDS011;59999;51.676;22.650;2023-02-01T17:21:01;124.60;;;27.60;;
72125;SDS011;59999;51.676;22.650;2023-02-01T17:23:28;114.70;;;25.63;;
72125;SDS011;59999;51.676;22.650;2023-02-01T17:25:55;59.58;;;14.25;;
72125;SDS011;59999;51.676;22.650;2023-02-01T17:28:22;60.45;;;16.65;;
72125;SDS011;59999;51.676;22.650;2023-02-01T17:30:48;76.22;;;17.23;;
72125;SDS011;59999;51.676;22.650;2023-02-01T17:33:19;49.92;;;14.15;;
72125;SDS011;59999;51.676;22.650;2023-02-01T17:35:48;75.23;;;19.80;;
72125;SDS011;59999;51.676;22.650;2023-02-01T17:38:14;51.67;;;15.32;;
72125;SDS011;59999;51.676;22.650;2023-02-01T17:40:40;29.25;;;9.48;;
72125;SDS011;59999;51.676;22.650;2023-02-01T17:43:09;103.13;;;24.50;;
72125;SDS011;59999;51.676;22.650;2023-02-01T17:48:19;80.30;;;21.92;;
72125;SDS011;59999;51.676;22.650;2023-02-01T17:50:47;48.22;;;14.10;;
72125;SDS011;59999;51.676;22.650;2023-02-01T17:53:16;89.20;;;24.52;;